Time;durP1;ratioP1;P1;durP2;ratioP2;P2;SDS_P1;SDS_P2;PMS_P1;PMS_P2;Temp;Humidity;BMP_temperature;BMP_pressure;BME280_temperature;BME280_humidity;BME280_pressure;Samples;Min_cycle;Max_cycle;Signal;HPM_P1;HPM_P2
2021/12/24 00:00:56;;;;;;;64.90;34.67;;;8.70;99.90;;;;;;5077061;28;20365;-80
2021/12/24 00:03:21;;;;;;;66.95;33.10;;;8.80;99.90;;;;;;5075303;28;20047;-81
2021/12/24 00:05:48;;;;;;;61.15;37.92;;;8.80;99.90;;;;;;5076210;28;20044;-81
2021/12/24 00:08:13;;;;;;;48.33;30.70;;;8.80;99.90;;;;;;5076435;28;20056;-81
2021/12/24 00:10:40;;;;;;;61.85;32.67;;;8.80;99.90;;;;;;5074912;28;20036;-81
2021/12/24 00:13:11;;;;;;;72.28;36.90;;;8.80;99.90;;;;;;5076494;28;20038;-81
2021/12/24 00:36:56;;;;;;;71.88;36.55;;;8.80;99.90;;;;;;5077919;28;20029;-82
2021/12/24 00:39:22;;;;;;;62.08;34.92;;;8.80;99.90;;;;;;5077401;28;20028;-81
2021/12/24 00:41:47;;;;;;;59.65;33.53;;;8.80;99.90;;;;;;5077652;28;20044;-81
2021/12/24 00:44:13;;;;;;;67.05;36.65;;;8.80;99.90;;;;;;5077506;28;20366;-82
2021/12/24 00:46:39;;;;;;;64.40;35.88;;;8.90;99.90;;;;;;5078768;28;20026;-80
2021/12/24 00:49:05;;;;;;;53.33;31.30;;;8.90;99.90;;;;;;5076130;28;20373;-81
2021/12/24 00:51:43;;;;;;;65.40;32.67;;;8.90;99.90;;;;;;5076592;28;20522;-80
2021/12/24 00:56:57;;;;;;;65.57;34.40;;;8.90;99.90;;;;;;5074342;28;20032;-81
2021/12/24 00:59:23;;;;;;;62.33;34.08;;;8.90;99.90;;;;;;5076545;28;20024;-79
2021/12/24 01:01:49;;;;;;;61.55;34.97;;;9.00;99.90;;;;;;5075446;28;20036;-81
2021/12/24 01:04:15;;;;;;;49.17;28.33;;;9.00;99.90;;;;;;5075939;28;20025;-81
2021/12/24 01:06:41;;;;;;;63.17;33.83;;;9.00;99.90;;;;;;5056746;28;20119;-82
2021/12/24 01:09:07;;;;;;;65.30;35.83;;;9.10;99.90;;;;;;5074293;28;20021;-80
2021/12/24 01:11:33;;;;;;;62.20;34.20;;;9.10;99.90;;;;;;5074822;28;20428;-82
2021/12/24 01:13:59;;;;;;;55.63;31.23;;;9.00;99.90;;;;;;5073572;28;20012;-82
2021/12/24 01:16:43;;;;;;;71.05;32.65;;;9.10;99.90;;;;;;5073517;28;20032;-81
2021/12/24 01:19:15;;;;;;;53.05;31.48;;;9.10;99.90;;;;;;5072974;28;20474;-82
2021/12/24 01:22:03;;;;;;;61.63;30.83;;;9.10;99.90;;;;;;5074028;28;20047;-81
2021/12/24 01:24:35;;;;;;;60.97;31.30;;;9.10;99.90;;;;;;5072723;28;20032;-81
2021/12/24 01:42:47;;;;;;;51.70;28.83;;;9.20;99.90;;;;;;5074288;28;20477;-80
2021/12/24 01:45:15;;;;;;;58.17;29.65;;;9.20;99.90;;;;;;5058503;28;20041;-82
2021/12/24 01:47:41;;;;;;;58.20;29.30;;;9.20;99.90;;;;;;5075103;28;20412;-81
2021/12/24 01:50:07;;;;;;;53.78;28.73;;;9.30;99.90;;;;;;5073961;28;20017;-82
2021/12/24 01:52:34;;;;;;;56.67;28.25;;;9.30;99.90;;;;;;5076589;28;20071;-81
2021/12/24 01:55:00;;;;;;;54.72;27.58;;;9.20;99.90;;;;;;5077432;28;20465;-80
2021/12/24 01:57:27;;;;;;;48.78;28.30;;;9.30;99.90;;;;;;5077728;28;20484;-80
2021/12/24 01:59:53;;;;;;;66.15;28.65;;;9.30;99.90;;;;;;5076895;28;20027;-81
2021/12/24 02:02:19;;;;;;;57.30;29.58;;;9.30;99.90;;;;;;5077086;28;20032;-81
2021/12/24 02:04:45;;;;;;;45.85;24.13;;;9.40;99.90;;;;;;5078452;28;20060;-81
2021/12/24 02:07:10;;;;;;;56.78;26.75;;;9.30;99.90;;;;;;5076779;28;20028;-82
2021/12/24 02:09:36;;;;;;;60.90;30.35;;;9.40;99.90;;;;;;5075686;28;20553;-81
2021/12/24 02:12:06;;;;;;;56.58;28.15;;;9.40;99.90;;;;;;5077260;28;20063;-81
2021/12/24 02:14:36;;;;;;;48.67;27.58;;;9.40;99.90;;;;;;5076607;28;20405;-81
2021/12/24 02:28:21;;;;;;;51.33;27.90;;;9.40;99.90;;;;;;5080572;28;20062;-82
2021/12/24 02:30:47;;;;;;;71.15;27.58;;;9.40;99.90;;;;;;5080846;28;20040;-82
2021/12/24 02:33:16;;;;;;;56.35;29.25;;;9.40;99.90;;;;;;5080359;28;20078;-81
2021/12/24 02:35:42;;;;;;;49.53;29.23;;;9.40;99.90;;;;;;5079701;28;20028;-81
2021/12/24 02:38:08;;;;;;;59.75;29.15;;;9.40;99.90;;;;;;5080177;28;20032;-82
2021/12/24 02:40:35;;;;;;;57.03;27.90;;;9.40;99.90;;;;;;5081260;28;20024;-82
2021/12/24 02:43:01;;;;;;;56.15;30.45;;;9.40;99.90;;;;;;5078280;28;20082;-82
2021/12/24 02:45:29;;;;;;;59.33;26.23;;;9.40;99.90;;;;;;5077754;28;20060;-82
2021/12/24 02:48:12;;;;;;;60.33;28.73;;;9.40;99.90;;;;;;5079455;28;20024;-82
2021/12/24 02:56:13;;;;;;;61.05;29.42;;;9.40;99.90;;;;;;5058054;28;20075;-82
2021/12/24 02:58:47;;;;;;;59.67;29.52;;;9.40;99.90;;;;;;5057159;28;20031;-80
2021/12/24 03:01:18;;;;;;;66.57;31.63;;;9.40;99.90;;;;;;5057279;28;20029;-82
2021/12/24 03:03:48;;;;;;;56.50;29.55;;;9.40;99.90;;;;;;5056530;28;20393;-83
2021/12/24 03:06:15;;;;;;;71.30;32.50;;;9.40;99.90;;;;;;5058496;28;20461;-82
2021/12/24 03:08:41;;;;;;;68.07;29.42;;;9.40;99.90;;;;;;5063558;28;20028;-82
2021/12/24 03:11:07;;;;;;;64.70;31.77;;;9.40;99.90;;;;;;5076613;28;20066;-82
2021/12/24 03:13:35;;;;;;;53.97;30.85;;;9.40;99.90;;;;;;5076366;28;20107;-81
2021/12/24 03:16:02;;;;;;;62.95;32.38;;;9.40;99.90;;;;;;5076741;28;20052;-81
2021/12/24 03:18:30;;;;;;;67.28;32.72;;;9.50;99.90;;;;;;5076847;28;20022;-81
2021/12/24 03:23:44;;;;;;;59.70;31.70;;;9.50;99.90;;;;;;5078225;28;20021;-81
2021/12/24 03:26:14;;;;;;;61.08;28.55;;;9.50;99.90;;;;;;5078078;28;20441;-82
2021/12/24 03:28:41;;;;;;;64.38;30.13;;;9.50;99.90;;;;;;5080483;28;20085;-82
2021/12/24 03:31:07;;;;;;;68.72;30.98;;;9.50;99.90;;;;;;5076886;28;20036;-81
2021/12/24 03:33:35;;;;;;;63.22;31.45;;;9.50;99.90;;;;;;5077127;28;20411;-80
2021/12/24 03:36:04;;;;;;;64.63;33.28;;;9.50;99.90;;;;;;5078549;28;20021;-81
2021/12/24 03:38:30;;;;;;;65.45;30.55;;;9.50;99.90;;;;;;5078437;28;20027;-82
2021/12/24 03:40:56;;;;;;;62.75;30.13;;;9.50;99.90;;;;;;5076001;28;20441;-82
2021/12/24 03:43:24;;;;;;;63.40;30.20;;;9.60;99.90;;;;;;5075701;28;20087;-81
2021/12/24 03:48:22;;;;;;;66.88;30.58;;;9.60;99.90;;;;;;5077325;28;20048;-82
2021/12/24 03:50:57;;;;;;;63.83;30.50;;;9.60;99.90;;;;;;5074888;28;20040;-82
2021/12/24 03:56:09;;;;;;;48.08;25.50;;;9.60;99.90;;;;;;5074322;28;20028;-82
2021/12/24 03:58:36;;;;;;;54.40;26.48;;;9.60;99.90;;;;;;5073508;28;20487;-82
2021/12/24 04:01:20;;;;;;;61.72;28.70;;;9.70;99.90;;;;;;5075210;28;20094;-81
2021/12/24 04:04:10;;;;;;;69.15;29.40;;;9.60;99.90;;;;;;5074977;28;20481;-83
2021/12/24 04:06:54;;;;;;;64.30;30.20;;;9.60;99.90;;;;;;5075158;28;20039;-83
2021/12/24 04:10:04;;;;;;;67.38;30.45;;;9.70;99.90;;;;;;5072687;28;20028;-83
2021/12/24 04:12:49;;;;;;;62.65;31.13;;;9.70;99.90;;;;;;5074749;28;20535;-81
2021/12/24 04:15:15;;;;;;;68.82;31.75;;;9.60;99.90;;;;;;5072737;28;20116;-82
2021/12/24 04:17:43;;;;;;;68.13;30.33;;;9.60;99.90;;;;;;5073076;28;20047;-81
2021/12/24 04:25:28;;;;;;;69.75;29.42;;;9.50;99.90;;;;;;5072264;28;20489;-82
2021/12/24 04:27:58;;;;;;;65.55;28.98;;;9.40;99.90;;;;;;5056353;28;20024;-83
2021/12/24 04:30:29;;;;;;;56.95;29.65;;;9.40;99.90;;;;;;5072886;28;20059;-81
2021/12/24 04:33:02;;;;;;;56.45;27.27;;;9.40;99.90;;;;;;5072562;28;20385;-82
2021/12/24 04:35:38;;;;;;;68.05;26.83;;;9.30;99.90;;;;;;5072564;28;20485;-82
2021/12/24 04:51:37;;;;;;;60.70;25.25;;;9.20;99.90;;;;;;5072247;28;20052;-83
2021/12/24 05:04:53;;;;;;;54.22;26.70;;;9.10;99.90;;;;;;5071754;28;20118;-82
2021/12/24 05:07:58;;;;;;;73.55;27.73;;;9.10;99.90;;;;;;5071757;28;20116;-83
2021/12/24 05:10:16;;;;;;;56.28;23.02;;;9.00;99.90;;;;;;5071734;28;20028;-83
2021/12/24 05:12:42;;;;;;;66.00;28.88;;;9.00;99.90;;;;;;5071930;28;20040;-82
2021/12/24 05:15:09;;;;;;;69.45;29.55;;;9.10;99.90;;;;;;5071669;28;20116;-82
2021/12/24 05:18:11;;;;;;;60.90;27.35;;;9.10;99.90;;;;;;5073187;28;20035;-83
2021/12/24 05:23:45;;;;;;;55.67;24.83;;;9.20;99.90;;;;;;5071472;28;20507;-81
2021/12/24 05:26:12;;;;;;;63.33;24.77;;;9.10;99.90;;;;;;5054360;28;20021;-85
2021/12/24 05:28:39;;;;;;;47.63;23.95;;;9.10;99.90;;;;;;5071703;28;20055;-82
2021/12/24 05:31:05;;;;;;;61.03;24.20;;;9.20;99.90;;;;;;5071548;28;20472;-82
2021/12/24 05:33:31;;;;;;;60.28;25.95;;;9.20;99.90;;;;;;5071689;28;20408;-82
2021/12/24 05:35:57;;;;;;;70.05;24.63;;;9.20;99.90;;;;;;5054855;28;20025;-83
2021/12/24 05:38:22;;;;;;;57.97;21.63;;;9.30;99.90;;;;;;5071475;28;20036;-81
2021/12/24 05:40:49;;;;;;;60.33;22.67;;;9.30;99.90;;;;;;5071365;28;20104;-82
2021/12/24 05:43:15;;;;;;;56.17;21.40;;;9.30;99.90;;;;;;5071625;28;20111;-82
2021/12/24 05:45:41;;;;;;;70.43;21.92;;;9.20;99.90;;;;;;5071539;28;20025;-83
2021/12/24 05:48:22;;;;;;;57.67;20.85;;;9.30;99.90;;;;;;5071714;28;20029;-83
2021/12/24 05:50:50;;;;;;;54.97;19.95;;;9.30;99.90;;;;;;5070912;28;20481;-82
2021/12/24 05:53:34;;;;;;;50.38;20.77;;;9.30;99.90;;;;;;5073167;28;20083;-82
2021/12/24 05:56:08;;;;;;;46.38;20.35;;;9.30;99.90;;;;;;5071308;28;20021;-84
2021/12/24 05:58:34;;;;;;;50.97;19.77;;;9.30;99.90;;;;;;5071533;28;20051;-82
2021/12/24 06:00:59;;;;;;;56.65;20.92;;;9.20;99.90;;;;;;5071279;28;20479;-83
2021/12/24 06:03:37;;;;;;;62.25;23.10;;;9.20;99.90;;;;;;5071441;28;20032;-83
2021/12/24 06:06:03;;;;;;;61.80;24.42;;;9.30;99.90;;;;;;5072294;28;20366;-82
2021/12/24 06:08:28;;;;;;;71.53;26.73;;;9.20;99.90;;;;;;5072799;28;20538;-82
2021/12/24 06:10:55;;;;;;;58.60;24.98;;;9.30;99.90;;;;;;5071120;28;20109;-83
2021/12/24 06:13:24;;;;;;;68.53;22.70;;;9.30;99.90;;;;;;5054443;28;20064;-83
2021/12/24 06:15:51;;;;;;;77.10;25.38;;;9.20;99.90;;;;;;5071535;28;20070;-82
2021/12/24 06:18:27;;;;;;;66.85;26.45;;;9.20;99.90;;;;;;5072362;28;20555;-81
2021/12/24 06:20:55;;;;;;;75.53;35.67;;;9.30;99.90;;;;;;5072242;28;20047;-83
2021/12/24 06:23:23;;;;;;;78.00;29.27;;;9.20;99.90;;;;;;5072616;28;20033;-82
2021/12/24 06:25:51;;;;;;;67.60;31.92;;;9.20;99.90;;;;;;5072240;28;20036;-81
2021/12/24 06:28:17;;;;;;;76.85;32.13;;;9.20;99.90;;;;;;5072298;28;20040;-82
2021/12/24 06:30:43;;;;;;;79.57;32.70;;;9.30;99.90;;;;;;5072372;28;20115;-82
2021/12/24 06:33:10;;;;;;;89.40;33.60;;;9.30;99.90;;;;;;5070983;28;20060;-81
2021/12/24 06:35:36;;;;;;;74.57;33.25;;;9.30;99.90;;;;;;5071073;28;20473;-83
2021/12/24 06:38:03;;;;;;;76.93;33.70;;;9.20;99.90;;;;;;5072355;28;20044;-83
2021/12/24 06:40:29;;;;;;;75.03;33.13;;;9.20;99.90;;;;;;5076175;28;20024;-83
2021/12/24 06:42:55;;;;;;;73.30;33.50;;;9.20;99.90;;;;;;5075882;28;20028;-81
2021/12/24 06:45:24;;;;;;;91.03;37.13;;;9.20;99.90;;;;;;5075854;28;20032;-83
2021/12/24 06:47:51;;;;;;;84.85;33.53;;;9.30;99.90;;;;;;5074463;28;20020;-83
2021/12/24 06:50:17;;;;;;;79.82;33.00;;;9.30;99.90;;;;;;5075451;28;20025;-83
2021/12/24 06:52:43;;;;;;;87.30;34.95;;;9.30;99.90;;;;;;5075630;28;20489;-83
2021/12/24 06:55:10;;;;;;;82.88;35.25;;;9.30;99.90;;;;;;5075831;28;20362;-82
2021/12/24 06:57:41;;;;;;;89.18;36.40;;;9.30;99.90;;;;;;5057988;28;20032;-83
2021/12/24 07:00:09;;;;;;;92.15;35.67;;;9.40;99.90;;;;;;5074340;28;20029;-83
2021/12/24 07:02:35;;;;;;;93.97;36.13;;;9.30;99.90;;;;;;5074203;28;20025;-83
2021/12/24 07:05:00;;;;;;;77.38;34.67;;;9.30;99.90;;;;;;5075654;28;20025;-83
2021/12/24 07:07:26;;;;;;;80.68;34.33;;;9.30;99.90;;;;;;5075614;28;20138;-81
2021/12/24 07:09:52;;;;;;;76.28;34.63;;;9.30;99.90;;;;;;5075420;28;20024;-80
2021/12/24 07:12:17;;;;;;;83.15;36.20;;;9.20;99.90;;;;;;5075171;28;20041;-82
2021/12/24 07:14:43;;;;;;;80.18;36.08;;;9.20;99.90;;;;;;5075539;28;20013;-81
2021/12/24 07:17:10;;;;;;;87.20;35.88;;;9.30;99.90;;;;;;5075244;28;20033;-80
2021/12/24 07:19:36;;;;;;;80.75;34.38;;;9.20;99.90;;;;;;5074968;28;20032;-82
2021/12/24 07:22:03;;;;;;;81.80;33.92;;;9.20;99.90;;;;;;5075329;28;20037;-81
2021/12/24 07:24:28;;;;;;;86.70;37.15;;;9.20;99.90;;;;;;5075269;28;20078;-81
2021/12/24 07:26:54;;;;;;;85.47;35.38;;;9.30;99.90;;;;;;5075101;28;20028;-81
2021/12/24 07:29:20;;;;;;;80.03;34.03;;;9.40;99.90;;;;;;5075112;28;20024;-81
2021/12/24 07:31:46;;;;;;;78.15;34.55;;;9.20;99.90;;;;;;5075053;28;20094;-80
2021/12/24 07:34:12;;;;;;;70.35;34.15;;;9.20;99.90;;;;;;5073327;28;20025;-82
2021/12/24 07:36:37;;;;;;;77.03;30.90;;;9.20;99.90;;;;;;5075271;28;20385;-82
2021/12/24 07:39:04;;;;;;;83.78;33.60;;;9.20;99.90;;;;;;5074862;28;20024;-81
2021/12/24 07:41:30;;;;;;;79.57;33.25;;;9.20;99.90;;;;;;5075171;28;20024;-81
2021/12/24 07:43:57;;;;;;;78.32;31.92;;;9.20;99.90;;;;;;5073669;28;20389;-80
2021/12/24 07:46:30;;;;;;;69.07;32.95;;;9.20;99.90;;;;;;5074786;28;20036;-81
2021/12/24 07:49:01;;;;;;;71.38;31.50;;;9.20;99.90;;;;;;5074275;28;20063;-82
2021/12/24 07:54:11;;;;;;;88.03;36.00;;;9.30;99.90;;;;;;5075287;28;20032;-82
2021/12/24 07:56:37;;;;;;;80.53;32.72;;;9.30;99.90;;;;;;5075745;28;20023;-82
2021/12/24 07:59:03;;;;;;;70.32;33.00;;;9.20;99.90;;;;;;5073680;28;20536;-82
2021/12/24 08:01:29;;;;;;;77.53;33.03;;;9.20;99.90;;;;;;5074814;28;20542;-83
2021/12/24 08:03:56;;;;;;;77.50;32.78;;;9.20;99.90;;;;;;5073670;28;20025;-82
2021/12/24 08:06:24;;;;;;;83.10;35.35;;;9.30;99.90;;;;;;5073348;28;20036;-81
2021/12/24 08:08:50;;;;;;;85.38;34.50;;;9.40;99.90;;;;;;5072919;28;20040;-83
2021/12/24 08:11:16;;;;;;;85.43;33.92;;;9.40;99.90;;;;;;5074437;28;20063;-81
2021/12/24 08:13:42;;;;;;;81.75;35.08;;;9.40;99.90;;;;;;5074611;28;20039;-82
2021/12/24 08:16:09;;;;;;;83.47;32.03;;;9.40;99.90;;;;;;5074915;28;20070;-82
2021/12/24 08:18:36;;;;;;;71.57;31.38;;;9.40;99.90;;;;;;5073887;28;20050;-83
2021/12/24 08:21:03;;;;;;;77.97;33.65;;;9.40;99.90;;;;;;5074244;28;20027;-82
2021/12/24 08:23:29;;;;;;;78.60;32.40;;;9.40;99.90;;;;;;5074211;28;20427;-82
2021/12/24 08:25:58;;;;;;;75.30;32.45;;;9.50;99.90;;;;;;5074202;28;20036;-82
2021/12/24 08:28:28;;;;;;;82.90;32.08;;;9.40;99.90;;;;;;5074159;28;20108;-82
2021/12/24 08:30:56;;;;;;;77.15;32.10;;;9.50;99.90;;;;;;5073978;28;20024;-81
2021/12/24 08:33:22;;;;;;;72.03;31.67;;;9.50;99.90;;;;;;5073776;28;20052;-81
2021/12/24 08:35:48;;;;;;;63.15;29.55;;;9.60;99.90;;;;;;5073954;28;20029;-82
2021/12/24 08:38:14;;;;;;;70.05;30.85;;;9.60;99.90;;;;;;5073942;28;20050;-81
2021/12/24 08:40:40;;;;;;;68.38;30.90;;;9.50;99.90;;;;;;5072741;28;20016;-79
2021/12/24 08:43:05;;;;;;;76.43;31.17;;;9.50;99.90;;;;;;5073700;28;20158;-82
2021/12/24 08:45:31;;;;;;;73.78;31.67;;;9.50;99.90;;;;;;5073431;28;20132;-82
2021/12/24 08:47:57;;;;;;;76.65;30.40;;;9.40;99.90;;;;;;5073718;28;20042;-79
2021/12/24 08:50:22;;;;;;;77.80;29.90;;;9.40;99.90;;;;;;5073435;28;20044;-81
2021/12/24 08:52:48;;;;;;;61.95;29.75;;;9.50;99.90;;;;;;5073579;28;20029;-81
2021/12/24 08:55:15;;;;;;;59.42;29.73;;;9.40;99.90;;;;;;5055732;28;20384;-81
2021/12/24 08:57:42;;;;;;;60.72;30.38;;;9.50;99.90;;;;;;5073771;28;20396;-78
2021/12/24 09:00:12;;;;;;;61.08;28.10;;;9.50;99.90;;;;;;5072055;28;20033;-82
2021/12/24 09:02:39;;;;;;;64.25;30.40;;;9.40;99.90;;;;;;5072539;28;20078;-82
2021/12/24 09:05:06;;;;;;;62.67;30.85;;;9.40;99.90;;;;;;5073668;28;20040;-81
2021/12/24 09:07:32;;;;;;;56.00;28.50;;;9.50;99.90;;;;;;5073441;28;20384;-80
2021/12/24 09:09:58;;;;;;;59.05;28.73;;;9.40;99.90;;;;;;5071982;28;20492;-82
2021/12/24 09:12:24;;;;;;;57.75;28.00;;;9.50;99.90;;;;;;5073321;28;20032;-81
2021/12/24 09:14:50;;;;;;;56.70;26.70;;;9.50;99.90;;;;;;5073011;28;20024;-81
2021/12/24 09:17:16;;;;;;;63.33;29.00;;;9.50;99.90;;;;;;5073121;28;20081;-81
2021/12/24 09:19:47;;;;;;;74.65;28.50;;;9.40;99.90;;;;;;5073053;28;20108;-82
2021/12/24 09:22:17;;;;;;;78.82;28.88;;;9.40;99.90;;;;;;5073080;28;20036;-83
2021/12/24 09:24:44;;;;;;;68.60;27.30;;;9.40;99.90;;;;;;5073142;28;20436;-81
2021/12/24 09:27:10;;;;;;;59.47;27.70;;;9.40;99.90;;;;;;5072838;28;20459;-81
2021/12/24 09:29:36;;;;;;;64.57;26.30;;;9.40;99.90;;;;;;5072823;28;20017;-82
2021/12/24 09:32:03;;;;;;;65.32;27.05;;;9.40;99.90;;;;;;5072948;28;20086;-81
2021/12/24 09:34:28;;;;;;;64.28;27.92;;;9.40;99.90;;;;;;5072964;28;20092;-82
2021/12/24 09:36:54;;;;;;;73.07;27.10;;;9.40;99.90;;;;;;5073025;28;20445;-82
2021/12/24 09:39:20;;;;;;;66.63;26.20;;;9.50;99.90;;;;;;5072868;28;20021;-82
2021/12/24 09:41:46;;;;;;;59.45;24.63;;;9.50;99.90;;;;;;5072753;28;20104;-81
2021/12/24 09:44:13;;;;;;;59.85;25.58;;;9.50;99.90;;;;;;5072707;28;20031;-81
2021/12/24 09:46:42;;;;;;;58.63;22.48;;;9.40;99.90;;;;;;5071630;28;20064;-78
2021/12/24 09:49:12;;;;;;;53.83;21.95;;;9.40;99.90;;;;;;5073139;28;20025;-81
2021/12/24 09:51:41;;;;;;;56.20;24.65;;;9.40;99.90;;;;;;5071509;28;20045;-80
2021/12/24 09:54:13;;;;;;;57.55;22.90;;;9.40;99.90;;;;;;5072716;28;20025;-75
2021/12/24 09:56:40;;;;;;;62.88;25.58;;;9.40;99.90;;;;;;5072670;28;20062;-81
2021/12/24 09:59:06;;;;;;;62.38;23.05;;;9.40;99.90;;;;;;5072478;28;20056;-82
2021/12/24 10:01:35;;;;;;;71.65;25.52;;;9.40;99.90;;;;;;5072661;28;20056;-80
2021/12/24 10:04:17;;;;;;;61.47;21.95;;;9.40;99.90;;;;;;5071678;28;20025;-80
2021/12/24 10:07:03;;;;;;;65.53;24.45;;;9.40;99.90;;;;;;5072836;28;20036;-81
2021/12/24 10:09:37;;;;;;;59.67;23.23;;;9.40;99.90;;;;;;5054683;28;20025;-81
2021/12/24 10:12:18;;;;;;;58.08;21.17;;;9.50;99.90;;;;;;5072156;28;20037;-81
2021/12/24 10:14:53;;;;;;;64.60;25.45;;;9.50;99.90;;;;;;5076458;28;20020;-82
2021/12/24 10:17:28;;;;;;;53.25;21.13;;;9.50;99.90;;;;;;5076391;28;20480;-81
2021/12/24 10:19:59;;;;;;;49.15;19.67;;;9.50;99.90;;;;;;5076463;28;20029;-81
2021/12/24 10:22:25;;;;;;;57.10;23.48;;;9.50;99.90;;;;;;5076421;28;20101;-82
2021/12/24 10:25:23;;;;;;;53.58;23.02;;;9.60;99.90;;;;;;5076538;28;20021;-81
2021/12/24 10:27:48;;;;;;;48.83;23.02;;;9.70;99.90;;;;;;5055855;28;20041;-82
2021/12/24 10:30:27;;;;;;;46.53;19.83;;;9.70;99.90;;;;;;5056462;28;20521;-80
2021/12/24 10:32:55;;;;;;;61.70;23.63;;;9.50;99.90;;;;;;5056678;28;20055;-81
2021/12/24 10:35:27;;;;;;;63.90;24.80;;;9.60;99.90;;;;;;5056460;28;20021;-81
2021/12/24 10:38:08;;;;;;;54.72;22.65;;;9.60;99.90;;;;;;5056181;28;20041;-81
2021/12/24 10:40:34;;;;;;;56.45;24.27;;;9.60;99.90;;;;;;5056136;28;20462;-84
2021/12/24 10:43:00;;;;;;;54.65;22.25;;;9.70;99.90;;;;;;5056067;28;20017;-83
2021/12/24 10:45:26;;;;;;;51.65;18.85;;;9.70;99.90;;;;;;5054737;28;20116;-83
2021/12/24 10:47:52;;;;;;;46.03;23.42;;;9.50;99.90;;;;;;5056037;28;20024;-82
2021/12/24 10:55:41;;;;;;;63.00;24.13;;;9.70;99.90;;;;;;5055350;28;20025;-82
2021/12/24 10:58:16;;;;;;;55.03;22.73;;;9.80;99.90;;;;;;5058738;28;20056;-82
2021/12/24 11:00:49;;;;;;;48.75;21.73;;;9.90;99.90;;;;;;5055867;28;20021;-82
2021/12/24 11:03:24;;;;;;;47.75;24.10;;;9.80;99.90;;;;;;5055435;28;20108;-83
2021/12/24 11:06:01;;;;;;;49.10;24.40;;;9.80;99.90;;;;;;5055494;28;20079;-83
2021/12/24 11:08:27;;;;;;;56.65;23.27;;;9.80;99.90;;;;;;5054079;28;20452;-83
2021/12/24 11:10:56;;;;;;;65.40;24.60;;;9.70;99.90;;;;;;5053927;28;20060;-82
2021/12/24 11:13:43;;;;;;;55.47;25.15;;;9.60;99.90;;;;;;5055282;28;20044;-81
2021/12/24 11:16:14;;;;;;;65.85;25.75;;;9.70;99.90;;;;;;5055294;28;20052;-81
2021/12/24 11:18:45;;;;;;;62.78;25.75;;;9.70;99.90;;;;;;5055016;28;20049;-80
2021/12/24 11:21:24;;;;;;;61.25;26.13;;;9.60;99.90;;;;;;5055531;28;20447;-81
2021/12/24 11:23:50;;;;;;;63.70;26.85;;;9.60;99.90;;;;;;5054662;28;20112;-83
2021/12/24 11:26:22;;;;;;;51.78;23.88;;;9.60;99.90;;;;;;5064703;28;20049;-81
2021/12/24 11:28:48;;;;;;;72.60;25.88;;;9.50;99.90;;;;;;5075283;28;20380;-82
2021/12/24 11:31:21;;;;;;;60.63;26.00;;;9.50;99.90;;;;;;5074204;28;20036;-81
2021/12/24 11:33:48;;;;;;;84.22;30.40;;;9.50;99.90;;;;;;5073900;28;20060;-79
2021/12/24 11:36:17;;;;;;;62.15;29.27;;;9.60;99.90;;;;;;5073888;28;20106;-82
2021/12/24 11:38:51;;;;;;;70.13;28.20;;;9.50;99.90;;;;;;5074730;28;20039;-82
2021/12/24 11:41:20;;;;;;;81.82;33.25;;;9.50;99.90;;;;;;5074852;28;20074;-80
2021/12/24 11:43:49;;;;;;;80.32;30.30;;;9.60;99.90;;;;;;5073461;28;20105;-82
2021/12/24 11:46:19;;;;;;;74.50;30.90;;;9.60;99.90;;;;;;5074830;28;20465;-82
2021/12/24 11:48:48;;;;;;;73.97;32.67;;;9.60;99.90;;;;;;5074540;28;20552;-83
2021/12/24 11:51:20;;;;;;;57.58;25.42;;;9.50;99.90;;;;;;5074772;28;20029;-80
2021/12/24 11:53:46;;;;;;;;;;;9.40;99.90;;;;;;5074755;28;20104;-80
2021/12/24 11:56:15;;;;;;;66.72;30.30;;;9.40;99.90;;;;;;5074811;28;19904;-83
2021/12/24 11:58:51;;;;;;;69.20;28.40;;;9.40;99.90;;;;;;5074694;28;20032;-79
2021/12/24 12:01:19;;;;;;;66.93;30.10;;;9.30;99.90;;;;;;5074543;28;20032;-79
2021/12/24 12:03:49;;;;;;;71.88;28.67;;;9.30;99.90;;;;;;5073230;28;20032;-82
2021/12/24 12:06:20;;;;;;;70.65;30.40;;;9.20;99.90;;;;;;5074654;28;20039;-81
2021/12/24 12:08:50;;;;;;;57.50;25.42;;;9.20;99.90;;;;;;5074060;28;20046;-81
2021/12/24 12:11:18;;;;;;;70.07;29.42;;;9.30;99.90;;;;;;5074400;28;20025;-80
2021/12/24 12:13:46;;;;;;;78.03;31.20;;;9.20;99.90;;;;;;5072896;28;20064;-80
2021/12/24 12:16:40;;;;;;;63.78;29.33;;;9.30;99.90;;;;;;5074241;28;20023;-81
2021/12/24 12:27:32;;;;;;;64.85;29.17;;;9.30;99.90;;;;;;5073900;28;20036;-79
2021/12/24 12:30:21;;;;;;;67.55;29.88;;;9.40;99.90;;;;;;5074113;28;20035;-80
2021/12/24 12:32:49;;;;;;;72.43;29.80;;;9.40;99.90;;;;;;5073890;28;20075;-81
2021/12/24 12:35:15;;;;;;;60.80;28.70;;;9.50;99.90;;;;;;5073905;28;20535;-81
2021/12/24 12:37:53;;;;;;;64.60;28.25;;;9.40;99.90;;;;;;5073445;28;20063;-81
2021/12/24 12:40:18;;;;;;;60.47;28.48;;;9.50;99.90;;;;;;5073942;28;20465;-80
2021/12/24 12:45:18;;;;;;;67.13;28.85;;;9.40;99.90;;;;;;5073602;28;20043;-82
2021/12/24 12:47:59;;;;;;;65.70;28.13;;;9.40;99.90;;;;;;5072344;28;20446;-78
2021/12/24 12:50:26;;;;;;;67.70;28.52;;;9.40;99.90;;;;;;5072899;28;20464;-80
2021/12/24 12:53:30;;;;;;;53.33;25.60;;;9.40;99.90;;;;;;5073765;28;20036;-81
2021/12/24 12:56:14;;;;;;;62.83;26.25;;;9.30;99.90;;;;;;5073662;28;20021;-78
2021/12/24 12:58:43;;;;;;;64.57;28.65;;;9.30;99.90;;;;;;5073659;28;20033;-82
2021/12/24 13:01:14;;;;;;;59.35;29.40;;;9.50;99.90;;;;;;5073650;28;20025;-81
2021/12/24 13:03:55;;;;;;;57.35;27.42;;;9.40;99.90;;;;;;5072108;28;20033;-81
2021/12/24 13:06:36;;;;;;;80.47;28.77;;;9.40;99.90;;;;;;5072973;28;20044;-78
2021/12/24 13:09:11;;;;;;;68.55;30.48;;;9.40;99.90;;;;;;5073120;28;20037;-81
2021/12/24 13:11:41;;;;;;;63.67;28.58;;;9.30;99.90;;;;;;5073041;28;20025;-81
2021/12/24 13:14:09;;;;;;;63.63;27.58;;;9.40;99.90;;;;;;5073194;28;20106;-81
2021/12/24 13:16:48;;;;;;;59.22;26.80;;;9.40;99.90;;;;;;5073243;28;20056;-81
2021/12/24 13:25:10;;;;;;;66.57;28.48;;;9.50;99.90;;;;;;5073084;28;20115;-81
2021/12/24 13:27:56;;;;;;;63.50;27.60;;;9.40;99.90;;;;;;5051776;28;20033;-81
2021/12/24 13:30:32;;;;;;;69.18;27.85;;;9.30;99.90;;;;;;5053069;28;20033;-80
2021/12/24 13:33:01;;;;;;;67.88;28.17;;;9.30;99.90;;;;;;5052848;28;20338;-80
2021/12/24 13:35:31;;;;;;;63.47;27.83;;;9.20;99.90;;;;;;5052320;28;20032;-79
2021/12/24 13:37:57;;;;;;;60.33;27.98;;;9.30;99.90;;;;;;5052949;28;20060;-81
2021/12/24 13:40:34;;;;;;;71.90;28.95;;;9.50;99.90;;;;;;5051604;28;20041;-72
2021/12/24 13:43:06;;;;;;;62.83;27.83;;;9.50;99.90;;;;;;5052762;28;20033;-82
2021/12/24 13:45:36;;;;;;;68.80;29.75;;;9.60;99.90;;;;;;5051473;28;20077;-81
2021/12/24 13:48:11;;;;;;;62.38;27.85;;;9.60;99.90;;;;;;5051013;28;20040;-81
2021/12/24 13:56:43;;;;;;;55.08;24.13;;;9.70;99.90;;;;;;5052684;28;20489;-81
2021/12/24 13:59:12;;;;;;;72.28;25.98;;;9.60;99.90;;;;;;5052727;28;20032;-81
2021/12/24 14:01:40;;;;;;;63.53;27.38;;;9.60;99.90;;;;;;5052455;28;20078;-79
2021/12/24 14:04:08;;;;;;;70.85;27.65;;;9.70;99.90;;;;;;5052190;28;20082;-81
2021/12/24 14:06:44;;;;;;;53.20;25.67;;;9.80;99.90;;;;;;5056505;28;20051;-80
2021/12/24 14:09:26;;;;;;;65.10;27.77;;;9.70;99.90;;;;;;5061725;28;20020;-80
2021/12/24 14:11:53;;;;;;;72.22;27.63;;;9.70;99.90;;;;;;5072260;28;20040;-79
2021/12/24 14:14:26;;;;;;;61.92;27.77;;;9.70;99.90;;;;;;5072544;28;20139;-81
2021/12/24 14:19:34;;;;;;;65.60;28.02;;;9.70;99.90;;;;;;5072199;28;20036;-81
2021/12/24 14:22:13;;;;;;;62.38;25.35;;;9.60;99.90;;;;;;5072450;28;20040;-81
2021/12/24 14:24:57;;;;;;;61.58;28.25;;;9.70;99.90;;;;;;5072443;28;20020;-81
2021/12/24 14:27:30;;;;;;;60.22;26.25;;;9.70;99.90;;;;;;5072064;28;20040;-80
2021/12/24 14:30:10;;;;;;;60.72;26.58;;;9.70;99.90;;;;;;5072456;28;20039;-81
2021/12/24 14:32:37;;;;;;;54.25;25.40;;;9.70;99.90;;;;;;5070768;28;20040;-81
2021/12/24 14:35:14;;;;;;;58.92;25.90;;;9.80;99.90;;;;;;5072456;28;20035;-79
2021/12/24 14:37:41;;;;;;;61.33;25.45;;;9.70;99.90;;;;;;5072317;28;20120;-81
2021/12/24 14:40:07;;;;;;;57.47;26.63;;;9.70;99.90;;;;;;5070899;28;20036;-81
2021/12/24 14:42:35;;;;;;;64.97;27.05;;;9.70;99.90;;;;;;5072285;28;20025;-80
2021/12/24 14:45:22;;;;;;;60.95;26.42;;;9.80;99.90;;;;;;5072178;28;20017;-82
2021/12/24 14:48:17;;;;;;;58.67;28.58;;;9.80;99.90;;;;;;5071822;28;20082;-81
2021/12/24 14:50:54;;;;;;;68.13;27.35;;;10.00;99.90;;;;;;5072186;28;20040;-80
2021/12/24 14:53:24;;;;;;;52.60;26.67;;;10.00;99.90;;;;;;5071874;28;20083;-80
2021/12/24 14:55:52;;;;;;;57.60;24.95;;;10.10;99.90;;;;;;5072309;28;20028;-81
2021/12/24 14:58:29;;;;;;;51.92;27.33;;;10.00;99.90;;;;;;5072153;28;20021;-81
2021/12/24 15:00:56;;;;;;;49.85;25.58;;;10.00;99.90;;;;;;5074598;28;20103;-81
2021/12/24 15:03:30;;;;;;;58.78;28.58;;;9.90;99.90;;;;;;5075099;28;20040;-81